Time;durP1;ratioP1;P1;durP2;ratioP2;P2;SDS_P1;SDS_P2;PMS_P1;PMS_P2;Temp;Humidity;BMP_temperature;BMP_pressure;BME280_temperature;BME280_humidity;BME280_pressure;Samples;Min_cycle;Max_cycle;Signal;HPM_P1;HPM_P2
2021/06/25 00:02:21;;;;;;;27.40;11.10;;;;;;;25.47;68.91;100371.67;126338;1099;104207;-78
2021/06/25 00:04:52;;;;;;;30.90;11.90;;;;;;;25.49;68.59;100363.57;126317;1099;104182;-79
2021/06/25 00:07:24;;;;;;;30.27;11.30;;;;;;;25.50;68.96;100359.10;126259;1099;104150;-79
2021/06/25 00:09:54;;;;;;;28.27;10.87;;;;;;;25.47;69.05;100360.92;126360;1099;104216;-78
2021/06/25 00:12:25;;;;;;;27.50;12.20;;;;;;;25.46;69.00;100356.50;126334;1099;104255;-78
2021/06/25 00:14:57;;;;;;;26.90;10.87;;;;;;;25.44;69.06;100352.95;126344;1099;104169;-79
2021/06/25 00:17:27;;;;;;;29.33;12.17;;;;;;;25.43;68.82;100342.25;126312;1099;104201;-78
2021/06/25 00:20:00;;;;;;;28.77;10.40;;;;;;;25.41;68.94;100342.30;126302;1099;104131;-79
2021/06/25 00:22:31;;;;;;;24.87;10.30;;;;;;;25.40;68.77;100343.25;126349;1099;104175;-78
2021/06/25 00:25:02;;;;;;;30.40;11.53;;;;;;;25.39;69.00;100341.47;126344;1099;104134;-79
2021/06/25 00:27:33;;;;;;;29.00;11.67;;;;;;;25.38;69.05;100339.70;126315;1099;104188;-78
2021/06/25 00:30:06;;;;;;;29.63;11.83;;;;;;;25.38;69.69;100339.70;126275;1099;104130;-79
2021/06/25 00:32:36;;;;;;;31.77;11.57;;;;;;;25.37;69.42;100334.37;126329;1099;104236;-78
2021/06/25 00:35:08;;;;;;;33.00;12.13;;;;;;;25.39;69.27;100325.36;126340;1099;104213;-78
2021/06/25 00:37:39;;;;;;;30.27;11.37;;;;;;;25.43;69.62;100315.39;126250;1099;104233;-77
2021/06/25 00:40:12;;;;;;;31.23;11.53;;;;;;;25.44;69.49;100315.35;126321;1099;104294;-78
2021/06/25 00:42:43;;;;;;;30.65;11.48;;;;;;;25.47;69.64;100304.52;126318;1099;104236;-78
2021/06/25 00:45:17;;;;;;;27.00;11.70;;;;;;;25.46;69.74;100305.47;126346;1099;104246;-80
2021/06/25 00:47:50;;;;;;;30.00;11.63;;;;;;;25.46;69.35;100307.25;126304;1099;104291;-78
2021/06/25 00:50:21;;;;;;;;;;;;;;;25.45;69.69;100309.06;126351;1099;104265;-79
2021/06/25 00:52:54;;;;;;;32.40;11.20;;;;;;;25.45;69.84;100301.02;126362;1099;104214;-78
2021/06/25 00:55:27;;;;;;;30.65;11.03;;;;;;;25.46;69.57;100286.67;126347;1099;104239;-79
2021/06/25 00:57:58;;;;;;;31.68;11.40;;;;;;;25.52;69.71;100298.14;126274;1099;104239;-79
2021/06/25 01:00:29;;;;;;;29.23;10.97;;;;;;;25.57;69.82;100299.78;126342;1099;104660;-79
2021/06/25 01:03:01;;;;;;;30.60;11.57;;;;;;;25.57;69.86;100302.47;126356;1099;104149;-80
2021/06/25 01:05:32;;;;;;;29.57;11.23;;;;;;;25.56;70.00;100297.14;126338;1099;104133;-79
2021/06/25 01:08:03;;;;;;;26.17;11.23;;;;;;;25.53;70.12;100289.17;126318;1099;104136;-79
2021/06/25 01:10:34;;;;;;;28.05;10.70;;;;;;;25.51;69.74;100291.00;126340;1099;104705;-80
2021/06/25 01:13:05;;;;;;;35.83;11.53;;;;;;;25.49;70.17;100285.67;126354;1099;104169;-78
2021/06/25 01:15:36;;;;;;;27.15;11.30;;;;;;;25.47;70.23;100290.22;126246;1099;104149;-80
2021/06/25 01:18:07;;;;;;;27.23;10.47;;;;;;;25.44;69.96;100280.44;126289;1099;104233;-79
2021/06/25 01:20:38;;;;;;;27.03;10.37;;;;;;;25.42;69.80;100276.05;126359;1099;104146;-79
2021/06/25 01:23:09;;;;;;;27.23;10.60;;;;;;;25.44;70.45;100280.44;126338;1099;104168;-80
2021/06/25 01:25:41;;;;;;;29.63;10.57;;;;;;;25.44;70.58;100293.87;126309;1099;101751;-79
2021/06/25 01:28:13;;;;;;;32.30;11.00;;;;;;;25.43;70.47;100293.91;126277;1099;104168;-79
2021/06/25 01:30:46;;;;;;;23.67;10.13;;;;;;;25.41;70.61;100299.33;126363;1098;104150;-77
2021/06/25 01:33:20;;;;;;;26.73;10.47;;;;;;;25.39;70.42;100292.26;126296;1099;104289;-80
2021/06/25 01:35:56;;;;;;;33.37;10.37;;;;;;;25.37;70.30;100294.98;126277;1099;104168;-79
2021/06/25 01:38:27;;;;;;;29.70;10.53;;;;;;;25.32;70.16;100296.91;126230;1099;104195;-79
2021/06/25 01:41:01;;;;;;;25.30;10.10;;;;;;;25.30;70.35;100294.27;126320;1099;104165;-78
2021/06/25 01:43:34;;;;;;;29.20;10.73;;;;;;;25.33;70.50;100303.17;126318;1099;104175;-78
2021/06/25 01:46:06;;;;;;;29.77;11.33;;;;;;;25.34;70.47;100296.86;126310;1099;104266;-79
2021/06/25 01:48:37;;;;;;;28.33;10.17;;;;;;;25.35;70.28;100294.13;126280;1099;104354;-78
2021/06/25 01:51:08;;;;;;;33.17;10.87;;;;;;;25.35;70.84;100295.95;126317;1099;104169;-79
2021/06/25 01:53:39;;;;;;;29.10;11.50;;;;;;;25.32;70.81;100302.27;126326;1099;104615;-79
2021/06/25 01:56:10;;;;;;;28.80;11.17;;;;;;;25.32;70.42;100298.72;126332;1099;104165;-78
2021/06/25 01:58:41;;;;;;;29.97;11.67;;;;;;;25.28;71.08;100300.59;126334;1099;104133;-79
2021/06/25 02:01:14;;;;;;;26.40;10.93;;;;;;;25.24;70.64;100293.53;126285;1099;107103;-78
2021/06/25 02:03:47;;;;;;;29.60;11.10;;;;;;;25.21;70.62;100293.62;126380;1099;104149;-80
2021/06/25 02:06:17;;;;;;;;;;;;;;;25.15;70.92;100293.78;126394;1099;104145;-79
2021/06/25 02:08:48;;;;;;;28.93;11.40;;;;;;;25.08;71.00;100291.27;126348;1099;104152;-79
2021/06/25 02:11:22;;;;;;;30.67;12.70;;;;;;;25.07;70.78;100291.31;126345;1099;104246;-79
2021/06/25 02:13:53;;;;;;;27.87;11.27;;;;;;;25.04;71.18;100300.35;126300;1098;104235;-79
2021/06/25 02:16:24;;;;;;;27.43;11.50;;;;;;;24.99;70.85;100299.58;126334;1098;104159;-78
2021/06/25 02:18:55;;;;;;;33.70;12.20;;;;;;;24.92;70.88;100295.31;126325;1099;104175;-80
2021/06/25 02:21:25;;;;;;;32.60;12.03;;;;;;;24.85;71.36;100297.26;126305;1099;104216;-80
2021/06/25 02:23:57;;;;;;;31.43;11.83;;;;;;;24.84;71.10;100300.89;126322;1099;104231;-78
2021/06/25 02:26:27;;;;;;;26.60;11.80;;;;;;;24.83;71.18;100303.61;126317;1099;104222;-81
2021/06/25 02:28:58;;;;;;;28.53;11.97;;;;;;;24.81;71.45;100311.70;126340;1099;104239;-79
2021/06/25 02:31:29;;;;;;;28.30;12.10;;;;;;;24.80;71.64;100312.61;126260;1099;104216;-80
2021/06/25 02:33:59;;;;;;;27.57;10.77;;;;;;;24.78;71.56;100314.46;126307;1099;104226;-77
2021/06/25 02:36:30;;;;;;;30.57;11.20;;;;;;;24.75;71.33;100306.49;126315;1099;104189;-80
2021/06/25 02:39:01;;;;;;;29.30;11.63;;;;;;;24.75;71.31;100317.22;126302;1099;104213;-79
2021/06/25 02:41:32;;;;;;;26.00;10.67;;;;;;;24.75;71.48;100318.09;126288;1099;104625;-80
2021/06/25 02:44:03;;;;;;;25.40;11.20;;;;;;;24.79;71.90;100309.97;126321;1099;104229;-78
2021/06/25 02:46:34;;;;;;;25.67;11.07;;;;;;;24.79;71.88;100304.59;126398;1099;104192;-79
2021/06/25 02:49:05;;;;;;;33.40;11.97;;;;;;;24.75;71.89;100302.00;126332;1099;104204;-80
2021/06/25 02:51:36;;;;;;;28.87;10.83;;;;;;;24.75;71.71;100310.05;126303;1099;105479;-79
2021/06/25 02:54:07;;;;;;;27.93;11.70;;;;;;;24.79;71.94;100305.47;126340;1099;104232;-79
2021/06/25 02:56:38;;;;;;;24.80;11.67;;;;;;;24.80;71.72;100301.87;126331;1098;104191;-78
2021/06/25 02:59:08;;;;;;;32.77;10.93;;;;;;;24.83;71.84;100311.66;126377;1099;105085;-78
2021/06/25 03:01:39;;;;;;;26.73;10.63;;;;;;;24.85;72.00;100307.12;126338;1099;104197;-80
2021/06/25 03:04:11;;;;;;;24.90;10.75;;;;;;;24.85;71.77;100317.86;126308;1099;104300;-80
2021/06/25 03:06:43;;;;;;;32.57;10.37;;;;;;;24.79;71.69;100312.65;126314;1097;104245;-79
2021/06/25 03:09:14;;;;;;;30.30;11.27;;;;;;;24.79;72.23;100315.33;126326;1099;104197;-79
2021/06/25 03:11:45;;;;;;;32.57;11.77;;;;;;;24.85;72.10;100325.91;126339;1099;104175;-79
2021/06/25 03:14:16;;;;;;;23.63;9.77;;;;;;;24.88;72.33;100321.33;126299;1099;104146;-80
2021/06/25 03:16:47;;;;;;;30.93;10.67;;;;;;;24.86;72.26;100320.50;126316;1099;104239;-79
2021/06/25 03:19:18;;;;;;;27.03;10.40;;;;;;;24.85;72.21;100325.91;126357;1099;104142;-78
2021/06/25 03:21:50;;;;;;;30.60;10.70;;;;;;;24.84;72.46;100326.81;126267;1099;104143;-79
2021/06/25 03:24:21;;;;;;;29.23;10.13;;;;;;;24.86;72.09;100327.68;126346;1099;104139;-80
2021/06/25 03:26:52;;;;;;;28.30;9.27;;;;;;;24.94;72.50;100317.61;126333;1099;104252;-78
2021/06/25 03:29:23;;;;;;;34.03;10.87;;;;;;;24.95;72.35;100316.70;126293;1099;104134;-79
2021/06/25 03:31:54;;;;;;;29.90;10.33;;;;;;;24.91;72.04;100313.20;126319;1099;104143;-79
2021/06/25 03:34:25;;;;;;;25.73;9.80;;;;;;;24.90;72.04;100324.87;126347;1099;104217;-80
2021/06/25 03:36:55;;;;;;;26.50;9.33;;;;;;;24.92;72.46;100325.70;126286;1099;104586;-79
2021/06/25 03:39:26;;;;;;;26.70;9.90;;;;;;;24.91;72.05;100323.06;126345;1099;104197;-79
2021/06/25 03:41:57;;;;;;;26.33;8.97;;;;;;;24.89;72.08;100319.55;126272;1099;104140;-78
2021/06/25 03:44:28;;;;;;;31.97;9.87;;;;;;;24.89;72.09;100327.59;126341;1099;104326;-78
2021/06/25 03:46:59;;;;;;;27.60;9.93;;;;;;;24.90;72.39;100332.93;126351;1099;104203;-79
2021/06/25 03:49:30;;;;;;;29.23;9.63;;;;;;;24.91;72.67;100321.25;126341;1099;104261;-78
2021/06/25 03:52:02;;;;;;;29.97;10.00;;;;;;;24.91;72.20;100328.43;126323;1099;104179;-79
2021/06/25 03:54:33;;;;;;;24.50;9.17;;;;;;;24.89;72.59;100330.28;126337;1097;104150;-79
2021/06/25 03:57:05;;;;;;;29.03;10.03;;;;;;;24.92;72.49;100327.52;126357;1099;104153;-79
2021/06/25 03:59:37;;;;;;;24.33;9.53;;;;;;;24.97;72.76;100327.40;126319;1099;104592;-79
2021/06/25 04:02:09;;;;;;;28.07;9.80;;;;;;;24.95;72.34;100316.70;126295;1099;104152;-79
2021/06/25 04:04:41;;;;;;;27.83;9.73;;;;;;;24.94;72.40;100322.98;126374;1099;105372;-78
2021/06/25 04:07:11;;;;;;;27.60;9.83;;;;;;;24.98;72.81;100334.51;126327;1098;104175;-78
2021/06/25 04:09:42;;;;;;;40.80;10.37;;;;;;;25.01;72.57;100331.74;126335;1099;104143;-78
2021/06/25 04:12:14;;;;;;;25.07;9.93;;;;;;;25.02;72.85;100336.20;126260;1099;105512;-77
2021/06/25 04:14:45;;;;;;;28.50;9.57;;;;;;;25.01;72.54;100334.42;126349;1099;104163;-79
2021/06/25 04:17:15;;;;;;;31.83;10.27;;;;;;;25.03;72.45;100332.61;126342;1099;104189;-78
2021/06/25 04:19:46;;;;;;;30.70;9.50;;;;;;;25.04;72.61;100335.25;126324;1097;104188;-78
2021/06/25 04:22:19;;;;;;;28.77;10.13;;;;;;;25.05;72.41;100326.25;126319;1099;104152;-77
2021/06/25 04:24:50;;;;;;;32.45;10.43;;;;;;;25.05;72.87;100334.30;126339;1099;104172;-78
2021/06/25 04:27:21;;;;;;;27.70;9.93;;;;;;;25.04;72.69;100329.88;126342;1098;104204;-77
2021/06/25 04:29:51;;;;;;;28.23;9.90;;;;;;;25.04;73.02;100335.25;126338;1099;104134;-77
2021/06/25 04:32:23;;;;;;;29.17;10.10;;;;;;;25.06;72.62;100328.02;126290;1099;104310;-79
2021/06/25 04:34:53;;;;;;;31.60;9.97;;;;;;;25.09;73.15;100330.62;126383;1097;104236;-78
2021/06/25 04:37:24;;;;;;;27.87;10.20;;;;;;;25.13;73.08;100344.84;126333;1099;104162;-78
2021/06/25 04:39:56;;;;;;;29.47;10.37;;;;;;;25.17;73.28;100348.34;126342;1099;104236;-78
2021/06/25 04:42:26;;;;;;;26.93;10.60;;;;;;;25.18;72.76;100350.08;126279;1099;104134;-78
2021/06/25 04:44:57;;;;;;;32.53;10.03;;;;;;;25.24;73.08;100353.50;126310;1099;104137;-78
2021/06/25 04:47:28;;;;;;;31.80;9.67;;;;;;;25.29;73.38;100356.06;126290;1099;104140;-77
2021/06/25 04:49:59;;;;;;;30.00;10.47;;;;;;;25.34;72.63;100358.63;126332;1098;104277;-77
2021/06/25 04:52:30;;;;;;;35.87;9.93;;;;;;;25.36;72.75;100357.67;126286;1099;104607;-78
2021/06/25 04:55:01;;;;;;;30.27;9.70;;;;;;;25.37;73.24;100363.91;126356;1099;104208;-78
2021/06/25 04:57:31;;;;;;;30.67;9.63;;;;;;;25.40;72.87;100363.83;126278;1099;104274;-77
2021/06/25 05:00:02;;;;;;;27.07;8.90;;;;;;;25.46;73.01;100364.56;126324;1099;104602;-79
2021/06/25 05:02:32;;;;;;;31.00;9.17;;;;;;;25.53;72.65;100364.39;126283;1099;104146;-79
2021/06/25 05:05:03;;;;;;;31.43;9.40;;;;;;;25.60;72.80;100365.95;126305;1099;104205;-76
2021/06/25 05:07:34;;;;;;;35.47;9.60;;;;;;;25.66;73.24;100357.72;126289;1099;104269;-77
2021/06/25 05:10:05;;;;;;;31.35;10.00;;;;;;;25.71;72.61;100355.80;126292;1099;104140;-78
2021/06/25 05:12:36;;;;;;;38.03;9.40;;;;;;;25.78;73.09;100357.36;126291;1099;104242;-77
2021/06/25 05:15:09;;;;;;;42.30;9.77;;;;;;;25.83;72.56;100358.09;126289;1099;111980;-76
2021/06/25 05:17:39;;;;;;;35.40;8.80;;;;;;;25.90;72.80;100355.22;126311;1099;104146;-76
2021/06/25 05:20:11;;;;;;;34.87;9.10;;;;;;;25.94;72.53;100364.97;126315;1099;104165;-77
2021/06/25 05:22:41;;;;;;;33.37;8.37;;;;;;;25.99;72.98;100369.33;126214;1099;104313;-78
2021/06/25 05:25:16;;;;;;;37.27;9.83;;;;;;;26.06;72.50;100367.32;126296;1099;104265;-78
2021/06/25 05:27:49;;;;;;;33.10;8.90;;;;;;;26.11;72.71;100367.18;126277;1099;104248;-77
2021/06/25 05:30:23;;;;;;;34.23;8.58;;;;;;;26.17;72.48;100370.55;126224;1099;104763;-76
2021/06/25 05:32:58;;;;;;;43.10;10.07;;;;;;;26.25;72.37;100375.69;126174;1099;104242;-77
2021/06/25 05:35:31;;;;;;;44.13;9.93;;;;;;;26.31;72.62;100369.25;126201;1099;108419;-77
2021/06/25 05:38:07;;;;;;;;;;;;;;;26.37;72.77;100377.13;126246;1099;104168;-78
2021/06/25 05:40:43;;;;;;;28.70;9.20;;;;;;;26.42;72.58;100371.60;126138;1099;104220;-76
2021/06/25 05:43:18;;;;;;;32.87;9.57;;;;;;;26.47;72.06;100375.88;126060;1099;104198;-77
2021/06/25 05:45:48;;;;;;;;;;;;;;;26.54;72.20;100371.20;126196;1099;119050;-77
2021/06/25 05:48:22;;;;;;;30.87;9.47;;;;;;;26.60;71.98;100364.73;126055;1099;104163;-78
2021/06/25 05:50:59;;;;;;;29.20;9.73;;;;;;;26.66;72.13;100365.45;126252;1099;104246;-77
2021/06/25 05:53:38;;;;;;;36.27;9.63;;;;;;;26.75;72.04;100364.25;126275;1099;104160;-76
2021/06/25 05:56:09;;;;;;;31.63;9.47;;;;;;;26.83;72.19;100359.52;126280;1099;104233;-76
2021/06/25 05:58:40;;;;;;;31.13;8.60;;;;;;;26.93;72.24;100369.94;126114;1099;104233;-77
2021/06/25 06:01:17;;;;;;;32.57;9.57;;;;;;;26.98;71.86;100362.61;126158;1099;104370;-79
2021/06/25 06:03:54;;;;;;;31.33;9.47;;;;;;;27.06;71.57;100371.28;126191;1099;104153;-80
2021/06/25 06:06:32;;;;;;;40.30;10.07;;;;;;;27.11;71.95;100361.22;126225;1099;110969;-80
2021/06/25 06:09:07;;;;;;;29.87;8.50;;;;;;;27.19;71.57;100359.16;126187;1099;104197;-78
2021/06/25 06:11:38;;;;;;;37.03;9.87;;;;;;;27.25;71.65;100358.95;126125;1099;104179;-77
2021/06/25 06:14:11;;;;;;;37.77;9.07;;;;;;;27.33;71.62;100349.72;126084;1099;104303;-76
2021/06/25 06:16:45;;;;;;;32.67;9.00;;;;;;;27.40;71.67;100351.27;126272;1099;104383;-78
2021/06/25 06:19:18;;;;;;;28.10;8.30;;;;;;;27.48;71.68;100361.77;126087;1099;104213;-77
2021/06/25 06:33:01;;;;;;;31.63;8.93;;;;;;;27.82;71.38;100363.21;126206;1099;104169;-78
2021/06/25 06:35:39;;;;;;;34.70;8.80;;;;;;;27.90;71.23;100371.88;126039;1099;104216;-78
2021/06/25 06:38:12;;;;;;;36.47;9.67;;;;;;;28.02;71.11;100365.14;126088;1099;104264;-79
2021/06/25 06:40:49;;;;;;;29.43;9.00;;;;;;;28.11;71.17;100362.09;126010;1099;104300;-80
2021/06/25 06:43:26;;;;;;;25.57;8.53;;;;;;;28.22;70.74;100370.66;126143;1099;104243;-78
2021/06/25 06:46:02;;;;;;;37.97;9.10;;;;;;;28.31;70.37;100372.09;126156;1099;104271;-78
2021/06/25 06:48:34;;;;;;;37.65;8.60;;;;;;;28.38;70.26;100362.81;126271;1099;104155;-79
2021/06/25 06:51:07;;;;;;;29.17;8.63;;;;;;;28.50;69.84;100373.11;126226;1099;104149;-77
2021/06/25 06:53:42;;;;;;;;;;;;;;;28.53;69.54;100361.30;126218;1099;104236;-77
2021/06/25 06:56:17;;;;;;;34.20;9.03;;;;;;;28.56;69.67;100366.56;126095;1099;104201;-77
2021/06/25 06:58:52;;;;;;;30.37;9.13;;;;;;;28.64;69.68;100366.28;125303;1099;104318;-76
2021/06/25 07:01:25;;;;;;;29.27;9.03;;;;;;;28.73;69.48;100367.73;126203;1099;104217;-77
2021/06/25 07:03:57;;;;;;;29.70;9.20;;;;;;;28.83;69.49;100369.12;126153;1099;104347;-75
2021/06/25 07:06:35;;;;;;;32.60;8.87;;;;;;;28.95;69.43;100364.99;126137;1099;104141;-76
2021/06/25 07:09:13;;;;;;;31.53;8.33;;;;;;;29.11;69.17;100362.50;125388;1099;104342;-78
2021/06/25 07:11:45;;;;;;;27.60;7.80;;;;;;;29.24;68.57;100366.47;125244;1099;104296;-77
2021/06/25 07:14:17;;;;;;;37.33;9.47;;;;;;;29.31;68.60;100365.27;125307;1102;104235;-77
2021/06/25 07:16:53;;;;;;;27.70;8.70;;;;;;;29.40;68.01;100358.55;125146;1099;104158;-79
2021/06/25 07:19:27;;;;;;;26.80;9.23;;;;;;;29.46;68.12;100363.67;125346;1099;104194;-77
2021/06/25 07:22:00;;;;;;;31.00;8.85;;;;;;;29.61;68.07;100359.41;126061;1099;105134;-77
2021/06/25 07:24:33;;;;;;;31.43;8.87;;;;;;;29.73;67.80;100363.36;125325;1099;104290;-78
2021/06/25 07:27:06;;;;;;;30.15;8.25;;;;;;;29.86;67.48;100355.61;125340;1099;104195;-78
2021/06/25 07:29:39;;;;;;;32.87;8.90;;;;;;;29.98;67.25;100364.95;125126;1102;104467;-78
2021/06/25 07:32:14;;;;;;;29.27;8.60;;;;;;;30.13;67.22;100357.95;125232;1099;104427;-78
2021/06/25 07:34:48;;;;;;;32.80;9.45;;;;;;;30.25;66.86;100355.52;125963;1099;104213;-77
2021/06/25 07:37:31;;;;;;;28.23;9.17;;;;;;;30.39;66.74;100345.89;125867;1099;104139;-78
2021/06/25 07:40:07;;;;;;;32.60;8.40;;;;;;;30.54;66.06;100336.11;126071;1099;104223;-77
2021/06/25 07:42:44;;;;;;;30.80;8.47;;;;;;;30.70;65.90;100342.52;125960;1099;104298;-77
2021/06/25 07:45:18;;;;;;;36.40;9.20;;;;;;;30.85;65.50;100338.13;126105;1099;104242;-75
2021/06/25 07:47:50;;;;;;;30.02;9.33;;;;;;;30.93;65.38;100343.16;126201;1099;104159;-75
2021/06/25 07:50:23;;;;;;;24.40;9.27;;;;;;;31.04;64.63;100346.23;126221;1099;105420;-76
2021/06/25 07:52:59;;;;;;;27.80;8.63;;;;;;;31.05;64.73;100347.97;126263;1099;104284;-76
2021/06/25 07:55:32;;;;;;;30.03;8.60;;;;;;;31.19;64.44;100344.53;126089;1099;104165;-77
2021/06/25 07:58:10;;;;;;;31.37;8.30;;;;;;;31.23;64.05;100340.72;126081;1099;105407;-78
2021/06/25 08:00:41;;;;;;;25.90;8.53;;;;;;;31.35;63.92;100347.30;125954;1099;104150;-77
2021/06/25 08:03:19;;;;;;;33.07;9.23;;;;;;;31.43;63.52;100342.37;126170;1099;104175;-77
2021/06/25 08:05:53;;;;;;;29.75;8.90;;;;;;;31.53;63.36;100343.63;126230;1099;104197;-75
2021/06/25 08:08:26;;;;;;;33.50;8.43;;;;;;;31.68;63.04;100341.03;126214;1099;104271;-76
2021/06/25 08:11:00;;;;;;;28.47;8.27;;;;;;;31.83;62.49;100339.33;126106;1099;104205;-76
2021/06/25 08:13:31;;;;;;;26.37;8.40;;;;;;;32.02;61.77;100345.48;126174;1099;104287;-76
2021/06/25 08:16:04;;;;;;;34.10;8.97;;;;;;;32.10;61.62;100339.66;126182;1099;104296;-77
2021/06/25 08:18:37;;;;;;;23.47;8.13;;;;;;;32.27;61.38;100348.66;126192;1099;104134;-76
2021/06/25 08:21:10;;;;;;;31.50;9.30;;;;;;;32.29;60.96;100344.00;125902;1099;104168;-76
2021/06/25 08:23:42;;;;;;;30.47;8.60;;;;;;;32.35;60.91;100346.37;126010;1099;104143;-76
2021/06/25 08:26:14;;;;;;;26.70;8.90;;;;;;;32.47;60.75;100344.79;126113;1099;104172;-76
2021/06/25 08:28:48;;;;;;;29.87;8.33;;;;;;;32.63;60.01;100347.47;126022;1099;104171;-77
2021/06/25 08:31:24;;;;;;;29.07;7.80;;;;;;;32.67;59.67;100349.95;125997;1097;104293;-78
2021/06/25 08:33:59;;;;;;;25.63;7.43;;;;;;;32.53;59.10;100345.30;126173;1099;104220;-78
2021/06/25 08:36:33;;;;;;;26.20;7.27;;;;;;;32.57;59.21;100341.45;126232;1099;104139;-76
2021/06/25 08:39:07;;;;;;;27.77;7.53;;;;;;;32.65;58.74;100337.45;126210;1099;104131;-77
2021/06/25 08:41:42;;;;;;;29.95;7.00;;;;;;;32.69;58.12;100339.86;126220;1099;104223;-77
2021/06/25 08:44:19;;;;;;;30.27;7.30;;;;;;;32.73;57.28;100340.58;126263;1099;104162;-78
2021/06/25 08:46:52;;;;;;;26.77;7.00;;;;;;;32.77;57.01;100348.45;126191;1098;104204;-76
2021/06/25 08:49:34;;;;;;;28.05;8.10;;;;;;;32.81;56.85;100338.27;126019;1099;104277;-76
2021/06/25 08:52:11;;;;;;;25.77;8.23;;;;;;;32.91;57.13;100335.86;126210;1099;104172;-76
2021/06/25 08:54:44;;;;;;;30.23;8.17;;;;;;;32.94;56.53;100331.14;126081;1099;104201;-78
2021/06/25 08:57:14;;;;;;;;;;;;;;;32.88;55.82;100328.80;126219;1099;105197;-77
2021/06/25 08:59:55;;;;;;;25.50;7.47;;;;;;;33.02;56.17;100324.34;126067;1099;104176;-77
2021/06/25 09:02:35;;;;;;;24.83;8.00;;;;;;;33.07;56.21;100314.95;126080;1099;104255;-77
2021/06/25 09:05:08;;;;;;;28.07;8.10;;;;;;;33.11;56.42;100316.52;126214;1099;104217;-77
2021/06/25 09:07:45;;;;;;;25.40;7.13;;;;;;;33.22;55.65;100315.86;126225;1099;104245;-75
2021/06/25 09:10:28;;;;;;;25.67;7.03;;;;;;;33.35;55.23;100316.00;126036;1099;104210;-75
2021/06/25 09:13:06;;;;;;;21.43;6.30;;;;;;;33.26;53.51;100325.59;126141;1099;104169;-75
2021/06/25 09:15:40;;;;;;;23.67;6.27;;;;;;;33.17;53.94;100320.69;126086;1099;104249;-75
2021/06/25 09:18:15;;;;;;;22.87;7.00;;;;;;;33.10;53.43;100324.77;126166;1099;104191;-75
2021/06/25 09:20:51;;;;;;;23.23;7.37;;;;;;;33.02;53.11;100319.80;126101;1099;104159;-76
2021/06/25 09:23:34;;;;;;;23.80;5.93;;;;;;;33.08;52.55;100329.41;126051;1098;104137;-76
2021/06/25 09:26:09;;;;;;;27.22;7.33;;;;;;;32.99;52.63;100322.70;126160;1099;104562;-76
2021/06/25 09:28:46;;;;;;;25.13;6.83;;;;;;;33.03;52.77;100326.97;126123;1098;104310;-77
2021/06/25 09:31:21;;;;;;;27.53;7.83;;;;;;;33.04;52.26;100325.14;125997;1099;104224;-75
2021/06/25 09:33:56;;;;;;;25.03;7.13;;;;;;;33.12;52.53;100328.27;126098;1099;104192;-76
2021/06/25 09:36:31;;;;;;;23.83;5.93;;;;;;;33.15;51.35;100326.22;126065;1099;104162;-76
2021/06/25 09:39:04;;;;;;;25.93;6.50;;;;;;;33.10;50.33;100330.20;126128;1099;104178;-76
2021/06/25 09:41:36;;;;;;;30.87;6.70;;;;;;;33.06;51.08;100323.20;126157;1099;104585;-76
2021/06/25 09:44:18;;;;;;;24.37;5.90;;;;;;;33.17;50.72;100320.69;126028;1099;104158;-75
2021/06/25 09:46:53;;;;;;;16.77;5.07;;;;;;;33.12;49.29;100318.25;126040;1099;104226;-76
2021/06/25 09:49:28;;;;;;;20.73;5.63;;;;;;;33.15;49.43;100328.07;126159;1098;104255;-76
2021/06/25 09:52:01;;;;;;;19.17;5.43;;;;;;;33.08;48.65;100319.43;126220;1099;104159;-76
2021/06/25 09:54:33;;;;;;;21.70;4.97;;;;;;;33.15;48.97;100319.91;126057;1099;104204;-74
2021/06/25 09:57:09;;;;;;;24.17;5.90;;;;;;;33.25;47.91;100320.25;125840;1099;104201;-74
2021/06/25 10:02:34;;;;;;;19.53;5.90;;;;;;;33.35;48.30;100321.44;126043;1098;104293;-74
2021/06/25 10:05:17;;;;;;;26.00;5.45;;;;;;;33.29;47.49;100316.38;126002;1099;104143;-73
2021/06/25 10:07:48;;;;;;;21.73;5.13;;;;;;;33.36;46.81;100317.72;125821;1099;104162;-74
2021/06/25 10:10:19;;;;;;;18.10;5.60;;;;;;;33.41;46.95;100314.72;125885;1099;104277;-73
2021/06/25 10:12:52;;;;;;;19.30;5.03;;;;;;;33.35;46.24;100309.66;125059;1099;104214;-73
2021/06/25 10:15:24;;;;;;;22.10;5.10;;;;;;;33.34;46.02;100308.80;125085;1102;104188;-73
2021/06/25 10:17:55;;;;;;;25.53;5.23;;;;;;;33.36;45.63;100311.42;125050;1102;104255;-73
2021/06/25 10:20:29;;;;;;;19.87;5.27;;;;;;;33.31;45.41;100308.98;125206;1099;104328;-73
2021/06/25 10:23:00;;;;;;;18.20;5.80;;;;;;;33.30;45.44;100297.25;124983;1099;104351;-74
2021/06/25 10:25:32;;;;;;;23.70;5.60;;;;;;;33.35;45.57;100296.06;125074;1099;104309;-74
2021/06/25 10:28:05;;;;;;;19.20;5.40;;;;;;;33.39;45.35;100300.35;125143;1102;104341;-75
2021/06/25 10:30:37;;;;;;;24.43;4.90;;;;;;;33.42;44.09;100294.72;125308;1099;104198;-75
2021/06/25 10:33:13;;;;;;;20.70;5.30;;;;;;;33.40;43.87;100304.83;125354;1099;104198;-75
2021/06/25 10:35:52;;;;;;;15.13;4.83;;;;;;;33.36;43.86;100289.66;126195;1099;104147;-74
2021/06/25 10:38:27;;;;;;;24.77;6.30;;;;;;;33.38;43.72;100296.77;126130;1099;104194;-74
2021/06/25 10:41:00;;;;;;;18.10;5.00;;;;;;;33.48;43.97;100297.05;126122;1099;104815;-75
2021/06/25 10:43:47;;;;;;;17.13;4.53;;;;;;;33.50;43.33;100297.81;126192;1099;104143;-74
2021/06/25 10:46:35;;;;;;;20.87;5.60;;;;;;;33.44;43.00;100293.66;125898;1099;104169;-75
2021/06/25 10:49:26;;;;;;;18.07;4.60;;;;;;;33.48;42.68;100295.20;126057;1098;104262;-75
2021/06/25 10:52:12;;;;;;;17.80;5.00;;;;;;;33.50;42.64;100298.71;125926;1099;104166;-76
2021/06/25 10:58:09;;;;;;;25.07;5.60;;;;;;;33.53;43.04;100297.63;125135;1102;104163;-75
2021/06/25 11:01:07;;;;;;;24.23;5.47;;;;;;;33.59;42.96;100301.81;124923;1102;104162;-75
2021/06/25 11:03:46;;;;;;;21.50;5.90;;;;;;;33.66;42.91;100293.16;125104;1102;105144;-76
2021/06/25 11:06:40;;;;;;;27.40;5.60;;;;;;;33.70;42.59;100299.27;125185;1102;104163;-77
2021/06/25 11:09:12;;;;;;;18.37;5.00;;;;;;;33.68;42.22;100291.20;125041;1102;109112;-75
2021/06/25 11:11:47;;;;;;;19.30;5.40;;;;;;;33.73;42.47;100287.36;125007;1105;104226;-76
2021/06/25 11:14:30;;;;;;;18.90;5.50;;;;;;;33.73;42.50;100292.80;125121;1102;104140;-77
2021/06/25 11:17:13;;;;;;;21.10;5.37;;;;;;;33.70;42.41;100299.27;125918;1099;104162;-79
2021/06/25 11:19:47;;;;;;;23.60;5.40;;;;;;;33.64;42.10;100292.39;126023;1099;117923;-77
2021/06/25 11:22:41;;;;;;;23.03;5.57;;;;;;;33.59;41.80;100291.80;126139;1099;104704;-78
2021/06/25 11:25:33;;;;;;;19.50;5.10;;;;;;;33.56;41.82;100291.13;126222;1099;104255;-77
2021/06/25 11:28:24;;;;;;;19.75;5.45;;;;;;;33.50;41.59;100292.38;126108;1099;104667;-77
2021/06/25 11:31:09;;;;;;;17.77;4.83;;;;;;;33.54;41.69;100295.80;125335;1102;104117;-78
2021/06/25 11:33:51;;;;;;;19.87;5.03;;;;;;;33.54;41.61;100287.64;125310;1102;104242;-78
2021/06/25 11:36:33;;;;;;;24.83;5.37;;;;;;;33.44;41.22;100276.45;125266;1099;104351;-77
2021/06/25 11:39:14;;;;;;;20.43;5.28;;;;;;;33.49;41.44;100282.49;125969;1099;104264;-77
2021/06/25 11:41:53;;;;;;;19.30;5.17;;;;;;;33.53;40.70;100284.02;126215;1099;104166;-77
2021/06/25 11:44:29;;;;;;;21.93;5.90;;;;;;;33.52;40.87;100286.84;126242;1099;104153;-78
2021/06/25 11:47:10;;;;;;;17.37;5.13;;;;;;;33.54;40.30;100282.20;125086;1102;104274;-77